Time,TemperatureF,DewpointF,PressureIn,WindDirection,WindDirectionDegrees,WindSpeedMPH,WindSpeedGustMPH,Humidity,HourlyPrecipIn,Conditions,Clouds,dailyrainin,SoftwareType,DateUTC
2013-10-03 00:22:00,45.0,42.0,30.22,North,352,0.0,0.0,88,0.00,,,0.21,,2013-10-03 07:22:00,
2013-10-03 00:52:00,45.0,42.0,30.22,NNE,12,0.0,2.0,88,0.05,,,0.27,,2013-10-03 07:52:00,
2013-10-03 01:22:00,44.0,41.0,30.22,NE,45,0.0,0.0,88,0.05,,,0.27,,2013-10-03 08:22:00,
2013-10-03 01:42:00,42.0,39.0,30.22,East,100,0.0,0.0,88,0.01,,,0.27,,2013-10-03 08:42:00,
2013-10-03 01:52:00,41.0,38.0,30.22,SSE,152,0.0,0.0,88,0.00,,,0.27,,2013-10-03 08:52:00,
2013-10-03 02:21:00,41.0,38.0,30.24,SSW,193,0.0,0.0,89,0.00,,,0.27,,2013-10-03 09:21:00,
2013-10-03 02:53:00,42.0,39.0,30.25,NW,315,0.0,0.0,89,0.00,,,0.27,,2013-10-03 09:53:00,
2013-10-03 03:22:00,41.0,38.0,30.25,SE,128,0.0,0.0,88,0.00,,,0.27,,2013-10-03 10:22:00,
2013-10-03 03:52:00,41.0,38.0,30.25,East,95,0.0,0.0,89,0.01,,,0.28,,2013-10-03 10:52:00,
2013-10-03 04:22:00,42.0,39.0,30.27,WSW,245,0.0,0.0,89,0.01,,,0.28,,2013-10-03 11:22:00,
2013-10-03 04:52:00,43.0,40.0,30.29,SSW,211,0.0,0.0,89,0.00,,,0.28,,2013-10-03 11:52:00,
2013-10-03 05:22:00,42.0,39.0,30.29,South,182,0.0,0.0,89,0.00,,,0.28,,2013-10-03 12:22:00,
2013-10-03 05:52:00,41.0,38.0,30.30,SE,133,0.0,0.0,90,0.00,,,0.28,,2013-10-03 12:52:00,
2013-10-03 06:21:00,42.0,39.0,30.30,West,276,2.0,2.0,89,0.00,,,0.28,,2013-10-03 13:21:00,
2013-10-03 06:52:00,42.0,39.0,30.32,ESE,109,0.0,0.0,89,0.00,,,0.28,,2013-10-03 13:52:00,
2013-10-03 07:21:00,43.0,40.0,30.32,SSW,202,0.0,0.0,89,0.00,,,0.28,,2013-10-03 14:21:00,
2013-10-03 07:52:00,42.0,39.0,30.34,WSW,248,0.0,0.0,89,0.00,,,0.28,,2013-10-03 14:52:00,
2013-10-03 08:21:00,42.0,39.0,30.35,WSW,241,0.0,0.0,89,0.00,,,0.28,,2013-10-03 15:21:00,
2013-10-03 08:53:00,43.0,40.0,30.35,WSW,239,1.0,1.0,89,0.00,,,0.28,,2013-10-03 15:53:00,
2013-10-03 09:23:00,44.0,41.0,30.37,SSW,199,0.0,0.0,88,0.00,,,0.28,,2013-10-03 16:23:00,
2013-10-03 09:42:00,44.0,41.0,30.37,South,176,0.0,0.0,88,0.00,,,0.28,,2013-10-03 16:42:00,
2013-10-03 09:53:00,46.0,41.0,30.37,West,265,0.0,0.0,84,0.00,,,0.28,,2013-10-03 16:53:00,
2013-10-03 10:22:00,50.0,42.0,30.37,WNW,292,1.0,3.0,75,0.00,,,0.28,,2013-10-03 17:22:00,
2013-10-03 10:42:00,51.0,44.0,30.37,WSW,253,0.0,2.0,76,0.00,,,0.28,,2013-10-03 17:42:00,
2013-10-03 10:52:00,52.0,43.0,30.37,WNW,284,2.0,5.0,70,0.00,,,0.28,,2013-10-03 17:52:00,
2013-10-03 11:22:00,53.0,41.0,30.37,NW,319,2.0,3.0,64,0.00,,,0.28,,2013-10-03 18:22:00,
2013-10-03 11:52:00,54.0,42.0,30.38,West,277,1.0,2.0,64,0.00,,,0.28,,2013-10-03 18:52:00,
2013-10-03 12:21:00,52.0,43.0,30.38,NW,307,2.0,4.0,72,0.00,,,0.28,,2013-10-03 19:21:00,
2013-10-03 12:52:00,56.0,43.0,30.38,East,83,0.0,3.0,62,0.00,,,0.28,,2013-10-03 19:52:00,
2013-10-03 13:11:00,56.0,43.0,30.38,NW,319,0.0,4.0,61,0.00,,,0.28,,2013-10-03 20:11:00,
2013-10-03 13:21:00,55.0,42.0,30.37,North,353,1.0,4.0,62,0.00,,,0.28,,2013-10-03 20:21:00,
2013-10-03 13:42:00,55.0,44.0,30.37,West,277,3.0,4.0,67,0.00,,,0.28,,2013-10-03 20:42:00,
2013-10-03 13:52:00,55.0,44.0,30.37,WNW,292,4.0,7.0,66,0.00,,,0.28,,2013-10-03 20:52:00,
2013-10-03 14:21:00,56.0,44.0,30.37,WNW,290,4.0,7.0,64,0.00,,,0.28,,2013-10-03 21:21:00,
2013-10-03 14:54:00,56.0,44.0,30.38,NNW,347,3.0,6.0,63,0.00,,,0.26,,2013-10-03 21:54:00,
2013-10-03 15:23:00,56.0,44.0,30.38,NNW,333,2.0,7.0,64,0.00,,,0.26,,2013-10-03 22:23:00,
2013-10-03 15:43:00,59.0,44.0,30.38,NW,317,2.0,6.0,58,0.00,,,0.26,,2013-10-03 22:43:00,
2013-10-03 15:54:00,59.0,43.0,30.38,NNW,339,2.0,7.0,56,0.00,,,0.26,,2013-10-03 22:54:00,
2013-10-03 16:21:00,57.0,42.0,30.38,NW,313,3.0,5.0,58,0.00,,,0.26,,2013-10-03 23:21:00,
2013-10-03 16:52:00,57.0,43.0,30.38,NW,305,3.0,7.0,59,0.00,,,0.26,,2013-10-03 23:52:00,
2013-10-03 17:21:00,54.0,41.0,30.38,NW,311,0.0,5.0,62,0.00,,,0.26,,2013-10-04 00:21:00,
2013-10-03 17:42:00,55.0,43.0,30.38,NNW,338,1.0,5.0,63,0.00,,,0.26,,2013-10-04 00:42:00,
2013-10-03 17:52:00,56.0,43.0,30.38,WNW,303,2.0,5.0,62,0.00,,,0.25,,2013-10-04 00:52:00,
2013-10-03 18:12:00,56.0,42.0,30.38,WNW,300,3.0,5.0,60,0.00,,,0.25,,2013-10-04 01:12:00,
2013-10-03 18:21:00,56.0,42.0,30.38,WNW,297,2.0,4.0,60,0.00,,,0.25,,2013-10-04 01:21:00,
2013-10-03 18:52:00,52.0,42.0,30.38,WNW,287,1.0,4.0,68,0.00,,,0.22,,2013-10-04 01:52:00,
2013-10-03 19:22:00,47.0,40.0,30.40,South,179,0.0,1.0,77,0.00,,,0.08,,2013-10-04 02:22:00,
2013-10-03 19:52:00,45.0,40.0,30.40,SW,216,0.0,0.0,82,0.00,,,0.07,,2013-10-04 02:52:00,
2013-10-03 20:22:00,43.0,38.0,30.40,SSW,211,0.0,0.0,84,0.00,,,0.07,,2013-10-04 03:22:00,
2013-10-03 20:59:00,42.0,38.0,30.42,ENE,63,0.0,0.0,86,0.00,,,0.07,,2013-10-04 03:59:00,
2013-10-03 22:04:00,39.0,35.0,30.40,NNE,26,0.0,0.0,87,0.00,,,0.07,,2013-10-04 05:04:00,
2013-10-03 22:25:00,38.0,34.0,30.42,NNE,17,0.0,0.0,87,0.00,,,0.07,,2013-10-04 05:25:00,
2013-10-03 22:57:00,37.0,34.0,30.42,ESE,112,0.0,0.0,87,0.00,,,0.07,,2013-10-04 05:57:00,
2013-10-03 23:56:00,36.0,33.0,30.42,East,92,0.0,0.0,88,0.00,,,0.06,,2013-10-04 06:56:00,